Wolvega, Netherlands
Current Conditions -  °F | °C
As of 12:55 PM on Thursday 30 Oct 2014 (Local Time) from EHLW Reporting Station
Haze Haze  
Wind Chill: 54°   Ceiling: 700
Heat Index: 54°   Visibility: 4mi
Dew Point: 52°   Wind: 9mph
Humidity: 94%   Direction: 150°SSE
Pressure: 30.18"   Gusts: NA
Location:  52.88°N, 6°E
Report Text: EHLW 301155Z AUTO 15008KT 6000 BR OVC007 12/11 Q1022 GRN 15007KT 4000 BR BKN005 TEMPO 2500 BR SCT002 OVC004
Loading
Personal Weather Stations






























Interactive Weather Map
Tropical Storm Tracking
New forecast layout! Learn more

10-Day Weather Forecast

Advertisements
Track Severe Weather on mobile